createdAt,value
2018-06-04T00:01:21.247Z,16.74
2018-06-04T00:03:50.619Z,16.63
2018-06-04T00:06:19.625Z,16.56
2018-06-04T00:08:48.886Z,16.65
2018-06-04T00:11:18.005Z,16.68
2018-06-04T00:13:47.053Z,16.75
2018-06-04T00:16:16.075Z,16.56
2018-06-04T00:18:45.163Z,16.81
2018-06-04T00:21:14.189Z,16.77
2018-06-04T00:23:43.413Z,16.65
2018-06-04T00:26:12.450Z,16.62
2018-06-04T00:28:41.591Z,16.70
2018-06-04T00:31:10.609Z,16.69
2018-06-04T00:33:44.596Z,16.61
2018-06-04T00:36:13.640Z,16.54
2018-06-04T00:38:42.664Z,16.55
2018-06-04T00:41:11.686Z,16.71
2018-06-04T00:43:40.780Z,16.86
2018-06-04T00:46:10.059Z,16.95
2018-06-04T00:48:39.356Z,16.84
2018-06-04T00:51:08.412Z,16.87
2018-06-04T00:53:37.536Z,16.92
2018-06-04T00:56:19.548Z,16.95
2018-06-04T00:58:48.572Z,17.05
2018-06-04T01:01:17.668Z,17.07
2018-06-04T01:03:46.814Z,16.97
2018-06-04T01:06:15.869Z,16.88
2018-06-04T01:08:45.501Z,16.84
2018-06-04T01:11:14.536Z,16.86
2018-06-04T01:13:43.541Z,16.88
2018-06-04T01:16:12.952Z,16.97
2018-06-04T01:18:41.953Z,16.96
2018-06-04T01:21:10.970Z,16.87
2018-06-04T01:23:40.339Z,16.89
2018-06-04T01:26:09.340Z,16.94
2018-06-04T01:28:38.364Z,16.97
2018-06-04T01:31:08.329Z,16.80
2018-06-04T01:33:38.361Z,16.93
2018-06-04T01:36:07.416Z,16.92
2018-06-04T01:38:36.447Z,16.96
2018-06-04T01:41:05.507Z,16.87
2018-06-04T01:56:34.575Z,16.30
2018-06-04T01:59:03.613Z,16.22
2018-06-04T02:01:32.641Z,16.22
2018-06-04T02:04:01.697Z,16.36
2018-06-04T02:06:30.745Z,16.26
2018-06-04T02:08:59.750Z,16.25
2018-06-04T02:11:28.869Z,16.44
2018-06-04T02:13:57.861Z,16.46
2018-06-04T02:16:26.911Z,16.58
2018-06-04T02:18:55.932Z,16.62
2018-06-04T02:21:24.988Z,16.51
2018-06-04T02:23:54.023Z,16.56
2018-06-04T02:26:23.046Z,16.51
2018-06-04T02:28:52.136Z,16.58
2018-06-04T02:31:21.200Z,16.53
2018-06-04T02:33:50.263Z,16.53
2018-06-04T02:36:19.338Z,16.57
2018-06-04T02:38:48.339Z,16.65
2018-06-04T02:41:17.437Z,16.56
2018-06-04T02:43:46.458Z,16.64
2018-06-04T02:46:15.442Z,16.64
2018-06-04T02:48:44.766Z,16.67
2018-06-04T02:51:13.998Z,16.65
2018-06-04T02:53:43.083Z,16.67
2018-06-04T02:56:12.845Z,16.54
2018-06-04T02:58:41.846Z,16.46
2018-06-04T03:01:11.036Z,16.49
2018-06-04T03:03:40.038Z,16.47
2018-06-04T03:06:09.060Z,16.45
2018-06-04T03:08:38.492Z,16.57
2018-06-04T03:11:07.513Z,16.47
2018-06-04T03:13:36.932Z,16.47
2018-06-04T03:16:05.970Z,16.63
2018-06-04T03:18:34.967Z,16.55
2018-06-04T03:21:04.302Z,16.65
2018-06-04T03:23:33.343Z,16.49
2018-06-04T03:26:02.348Z,16.53
2018-06-04T03:28:31.361Z,16.55
2018-06-04T03:31:00.441Z,16.56
2018-06-04T03:33:29.661Z,16.54
2018-06-04T03:35:58.713Z,16.41
2018-06-04T03:38:27.737Z,16.38
2018-06-04T03:40:56.761Z,16.43
2018-06-04T03:43:26.119Z,16.49
2018-06-04T03:45:55.174Z,16.54
2018-06-04T03:48:24.211Z,16.53
2018-06-04T03:50:53.390Z,16.52
2018-06-04T03:53:22.603Z,16.56
2018-06-04T03:55:51.732Z,16.55
2018-06-04T03:58:21.629Z,16.49
2018-06-04T04:00:50.776Z,16.57
2018-06-04T04:03:19.774Z,16.62
2018-06-04T04:05:48.818Z,16.49
2018-06-04T04:08:17.893Z,16.58
2018-06-04T04:10:46.912Z,16.53
2018-06-04T04:13:15.960Z,16.56
2018-06-04T04:15:45.087Z,16.57
2018-06-04T04:18:14.370Z,16.64
2018-06-04T04:20:43.452Z,16.67
2018-06-04T04:23:12.675Z,16.57
2018-06-04T04:25:41.712Z,16.71
2018-06-04T04:28:10.713Z,16.62
2018-06-04T04:30:39.731Z,16.71
2018-06-04T04:33:08.943Z,16.64
2018-06-04T04:35:38.005Z,16.76
2018-06-04T04:38:07.025Z,16.74
2018-06-04T04:40:36.082Z,16.71
2018-06-04T04:43:05.185Z,16.86
2018-06-04T04:45:34.245Z,16.87
2018-06-04T04:48:03.342Z,16.85
2018-06-04T04:50:32.712Z,17.01
2018-06-04T04:53:01.735Z,17.03
2018-06-04T04:55:30.765Z,17.08
2018-06-04T04:57:59.813Z,17.04
2018-06-04T05:00:28.845Z,17.12
2018-06-04T05:02:58.762Z,17.10
2018-06-04T05:05:28.395Z,17.03
2018-06-04T05:07:57.455Z,17.08
2018-06-04T05:10:26.491Z,17.04
2018-06-04T05:12:55.890Z,17.01
2018-06-04T05:15:24.925Z,17.05
2018-06-04T05:17:53.923Z,17.00
2018-06-04T05:20:22.960Z,17.05
2018-06-04T05:22:52.019Z,17.13
2018-06-04T05:25:21.105Z,17.15
2018-06-04T05:27:50.141Z,17.12
2018-06-04T05:30:19.186Z,17.08
2018-06-04T05:32:48.191Z,17.05
2018-06-04T05:35:17.990Z,16.93
2018-06-04T05:37:46.998Z,17.03
2018-06-04T05:40:16.113Z,17.07
2018-06-04T05:42:45.120Z,17.08
2018-06-04T05:45:14.133Z,17.17
2018-06-04T05:47:43.156Z,17.15
2018-06-04T05:50:12.374Z,17.21
2018-06-04T05:52:41.372Z,17.32
2018-06-04T05:55:10.387Z,17.25
2018-06-04T05:57:39.391Z,17.34
2018-06-04T06:00:08.428Z,17.40
2018-06-04T06:02:37.430Z,17.51
2018-06-04T06:05:11.867Z,17.57
2018-06-04T06:07:40.861Z,17.58
2018-06-04T06:10:10.040Z,17.61
2018-06-04T06:12:39.742Z,17.52
2018-06-04T06:15:08.794Z,17.51
2018-06-04T06:17:37.917Z,17.56
2018-06-04T06:20:07.017Z,17.53
2018-06-04T06:22:36.137Z,17.48
2018-06-04T06:25:06.288Z,17.41
2018-06-04T06:27:35.293Z,17.54
2018-06-04T06:30:04.614Z,17.56
2018-06-04T06:32:33.635Z,17.71
2018-06-04T06:35:02.640Z,17.77
2018-06-04T06:37:32.020Z,17.83
2018-06-04T06:40:01.098Z,17.89
2018-06-04T06:42:30.112Z,17.93
2018-06-04T06:45:04.884Z,17.81
2018-06-04T06:47:33.951Z,17.74
2018-06-04T06:50:03.237Z,17.77
2018-06-04T06:52:32.779Z,17.82
2018-06-04T06:55:01.857Z,17.84
2018-06-04T06:57:30.957Z,17.83
2018-06-04T07:00:00.931Z,17.84
2018-06-04T07:02:30.337Z,17.85
2018-06-04T07:04:59.381Z,17.75
2018-06-04T07:07:28.425Z,17.63
2018-06-04T07:09:57.433Z,17.70
2018-06-04T07:12:26.511Z,17.81
2018-06-04T07:14:55.561Z,17.94
2018-06-04T07:17:24.819Z,17.94
2018-06-04T07:19:54.181Z,17.94
2018-06-04T07:22:23.531Z,17.94
2018-06-04T07:24:52.548Z,18.02
2018-06-04T07:27:21.581Z,17.94
2018-06-04T07:29:50.648Z,17.98
2018-06-04T07:32:19.675Z,17.96
2018-06-04T07:34:48.718Z,17.89
2018-06-04T07:37:17.994Z,18.02
2018-06-04T07:39:47.014Z,17.99
2018-06-04T07:42:16.013Z,18.09
2018-06-04T07:44:45.046Z,18.17
2018-06-04T07:47:14.164Z,18.17
2018-06-04T07:49:43.183Z,18.16
2018-06-04T07:52:12.338Z,18.19
2018-06-04T07:54:41.415Z,18.21
2018-06-04T07:57:10.631Z,18.28
2018-06-04T07:59:39.705Z,18.24
2018-06-04T08:02:08.838Z,18.15
2018-06-04T08:04:37.879Z,18.19
2018-06-04T08:07:06.877Z,18.08
2018-06-04T08:09:35.945Z,18.00
2018-06-04T08:12:05.268Z,18.07
2018-06-04T08:14:34.362Z,17.94
2018-06-04T08:17:03.437Z,17.93
2018-06-04T08:19:32.488Z,18.01
2018-06-04T08:22:01.539Z,18.17
2018-06-04T08:24:30.560Z,18.23
2018-06-04T08:27:00.624Z,18.32
2018-06-04T08:29:30.941Z,18.15
2018-06-04T08:32:00.353Z,18.19
2018-06-04T08:34:30.228Z,18.15
2018-06-04T08:36:59.560Z,18.20
2018-06-04T08:39:29.060Z,18.20
2018-06-04T08:41:58.277Z,18.27
2018-06-04T08:44:27.399Z,18.35
2018-06-04T08:46:56.482Z,18.42
2018-06-04T08:49:25.707Z,18.42
2018-06-04T08:51:54.800Z,18.50
2018-06-04T08:54:23.842Z,18.42
2018-06-04T08:56:52.914Z,18.35
2018-06-04T08:59:21.992Z,18.31
2018-06-04T09:01:51.075Z,18.40
2018-06-04T09:04:20.221Z,18.51
2018-06-04T09:06:49.269Z,18.52
2018-06-04T09:09:18.338Z,18.42
2018-06-04T09:11:47.565Z,18.40
2018-06-04T09:14:16.590Z,18.48
2018-06-04T09:16:45.677Z,18.48
2018-06-04T09:19:14.699Z,18.63
2018-06-04T09:21:43.721Z,18.62
2018-06-04T09:24:12.712Z,18.66
2018-06-04T09:26:41.740Z,18.56
2018-06-04T09:29:11.076Z,18.61
2018-06-04T09:31:40.172Z,18.71
2018-06-04T09:34:09.200Z,18.77
2018-06-04T09:36:38.214Z,18.86
2018-06-04T09:39:08.128Z,18.84
2018-06-04T09:41:37.288Z,18.89
2018-06-04T09:44:06.319Z,18.87
2018-06-04T09:46:35.366Z,18.87
2018-06-04T09:49:04.489Z,18.87
2018-06-04T09:51:33.541Z,18.90
2018-06-04T09:54:02.558Z,18.97
2018-06-04T09:56:31.568Z,19.01
2018-06-04T09:59:00.674Z,18.99
2018-06-04T10:01:30.060Z,18.90
2018-06-04T10:03:59.068Z,18.90
2018-06-04T10:06:28.601Z,18.94
2018-06-04T10:08:58.734Z,18.97
2018-06-04T10:11:27.772Z,19.05
2018-06-04T10:13:57.404Z,19.09
2018-06-04T10:16:26.408Z,19.03
2018-06-04T10:18:55.450Z,19.05
2018-06-04T10:21:24.516Z,18.99
2018-06-04T10:23:53.597Z,18.92
2018-06-04T10:26:22.684Z,19.01
2018-06-04T10:28:51.760Z,19.09
2018-06-04T10:31:20.790Z,19.15
2018-06-04T10:33:49.883Z,19.17
2018-06-04T10:36:19.006Z,19.18
2018-06-04T10:38:48.000Z,19.24
2018-06-04T10:41:18.211Z,19.26
2018-06-04T10:43:47.296Z,19.31
2018-06-04T10:46:16.288Z,19.36
2018-06-04T10:48:45.379Z,19.32
2018-06-04T10:51:14.419Z,19.40
2018-06-04T10:53:43.496Z,19.31
2018-06-04T11:09:12.582Z,19.47
2018-06-04T11:11:41.584Z,19.53
2018-06-04T11:14:10.891Z,19.67
2018-06-04T11:16:39.939Z,19.72
2018-06-04T11:19:08.950Z,19.60
2018-06-04T11:21:38.036Z,19.65
2018-06-04T11:24:07.153Z,19.56
2018-06-04T11:26:36.192Z,19.60
2018-06-04T11:29:05.572Z,19.77
2018-06-04T11:31:34.572Z,19.86
2018-06-04T11:34:03.571Z,19.67
2018-06-04T11:36:32.633Z,19.65
2018-06-04T11:39:01.993Z,19.81
2018-06-04T11:41:31.010Z,19.94
2018-06-04T11:44:00.090Z,20.10
2018-06-04T11:46:29.104Z,20.22
2018-06-04T11:48:58.117Z,20.20
2018-06-04T11:51:27.149Z,20.04
2018-06-04T11:53:56.236Z,20.15
2018-06-04T11:56:25.290Z,20.25
2018-06-04T11:58:54.236Z,20.19
2018-06-04T12:01:23.239Z,20.30
2018-06-04T12:03:52.241Z,20.36
2018-06-04T12:06:21.542Z,20.44
2018-06-04T12:08:50.596Z,20.36
2018-06-04T12:11:19.658Z,20.26
2018-06-04T12:13:48.678Z,20.30
2018-06-04T12:16:17.692Z,20.40
2018-06-04T12:18:46.658Z,20.43
2018-06-04T12:21:15.647Z,20.50
2018-06-04T12:23:44.656Z,20.53
2018-06-04T12:26:13.704Z,20.60
2018-06-04T12:28:42.720Z,20.70
2018-06-04T12:31:11.740Z,20.78
2018-06-04T12:33:40.753Z,20.86
2018-06-04T12:36:09.809Z,20.93
2018-06-04T12:38:39.464Z,21.08
2018-06-04T12:41:08.498Z,21.10
2018-06-04T12:43:37.500Z,20.96
2018-06-04T12:46:06.616Z,21.09
2018-06-04T12:48:35.620Z,21.03
2018-06-04T12:51:04.648Z,21.09
2018-06-04T12:53:33.693Z,21.15
2018-06-04T12:56:02.692Z,21.19
2018-06-04T12:58:31.812Z,21.34
2018-06-04T13:01:00.872Z,21.29
2018-06-04T13:03:29.897Z,21.35
2018-06-04T13:05:58.944Z,21.43
2018-06-04T13:08:28.072Z,21.42
2018-06-04T13:10:57.074Z,21.49
2018-06-04T13:13:26.072Z,21.49
2018-06-04T13:15:55.116Z,21.38
2018-06-04T13:18:24.180Z,21.38
2018-06-04T13:20:53.225Z,21.37
2018-06-04T13:23:22.261Z,21.43
2018-06-04T13:25:51.326Z,21.47
2018-06-04T13:28:20.420Z,21.42
2018-06-04T13:30:49.454Z,21.52
2018-06-04T13:33:18.650Z,21.44
2018-06-04T13:35:47.697Z,21.37
2018-06-04T13:38:17.056Z,21.32
2018-06-04T13:40:46.082Z,21.29
2018-06-04T13:43:15.048Z,21.28
2018-06-04T13:45:44.238Z,21.32
2018-06-04T13:48:13.264Z,21.38
2018-06-04T13:50:42.940Z,21.30
2018-06-04T13:53:12.076Z,21.22
2018-06-04T13:55:41.206Z,21.06
2018-06-04T13:58:10.393Z,21.21
2018-06-04T14:00:39.743Z,21.20
2018-06-04T14:03:08.737Z,21.24
2018-06-04T14:05:37.789Z,21.40
2018-06-04T14:08:06.979Z,21.35
2018-06-04T14:10:36.176Z,21.24
2018-06-04T14:13:05.238Z,21.27
2018-06-04T14:15:34.268Z,21.03
2018-06-04T14:18:03.805Z,21.27
2018-06-04T14:20:32.960Z,21.31
2018-06-04T14:23:02.008Z,21.47
2018-06-04T14:25:31.456Z,21.48
2018-06-04T14:28:00.484Z,21.59
2018-06-04T14:30:29.622Z,21.60
2018-06-04T14:32:58.668Z,21.43
2018-06-04T14:35:28.041Z,21.29
2018-06-04T14:37:57.081Z,21.25
2018-06-04T14:40:26.152Z,21.29
2018-06-04T14:42:55.132Z,21.15
2018-06-04T14:45:24.142Z,21.11
2018-06-04T14:47:53.136Z,21.36
2018-06-04T14:50:22.229Z,21.43
2018-06-04T14:52:51.316Z,21.46
2018-06-04T14:55:20.324Z,21.45
2018-06-04T14:57:49.322Z,21.04
2018-06-04T15:00:18.676Z,21.04
2018-06-04T15:02:47.696Z,21.19
2018-06-04T15:05:16.777Z,21.15
2018-06-04T15:07:45.820Z,21.13
2018-06-04T15:10:14.904Z,21.26
2018-06-04T15:12:48.894Z,21.22
2018-06-04T15:15:17.999Z,21.35
2018-06-04T15:17:46.970Z,21.34
2018-06-04T15:20:16.026Z,21.30
2018-06-04T15:22:45.059Z,21.24
2018-06-04T15:25:14.092Z,21.05
2018-06-04T15:27:43.243Z,20.95
2018-06-04T15:30:12.317Z,20.90
2018-06-04T15:32:41.451Z,20.65
2018-06-04T15:35:10.537Z,20.80
2018-06-04T15:37:39.676Z,20.82
2018-06-04T15:40:08.709Z,20.86
2018-06-04T15:42:37.708Z,20.83
2018-06-04T15:58:06.864Z,20.71
2018-06-04T16:00:36.136Z,20.60
2018-06-04T16:03:05.159Z,20.30
2018-06-04T16:05:34.524Z,20.46
2018-06-04T16:08:03.553Z,20.46
2018-06-04T16:10:32.615Z,20.46
2018-06-04T16:13:01.668Z,20.60
2018-06-04T16:15:37.128Z,20.30
2018-06-04T16:18:06.173Z,20.49
2018-06-04T16:20:35.236Z,20.50
2018-06-04T16:23:04.225Z,20.30
2018-06-04T16:25:33.236Z,20.47
2018-06-04T16:28:02.468Z,20.38
2018-06-04T16:30:31.516Z,20.17
2018-06-04T16:33:00.550Z,20.13
2018-06-04T16:35:29.681Z,20.12
2018-06-04T16:37:58.734Z,20.16
2018-06-04T16:40:27.827Z,20.23
2018-06-04T16:42:57.029Z,20.27
2018-06-04T16:45:26.139Z,20.14
2018-06-04T16:47:55.213Z,20.25
2018-06-04T16:50:24.262Z,20.26
2018-06-04T16:52:53.240Z,20.21
2018-06-04T16:55:22.284Z,20.30
2018-06-04T16:57:51.348Z,20.09
2018-06-04T17:00:20.525Z,20.20
2018-06-04T17:02:49.576Z,20.16
2018-06-04T17:05:18.602Z,20.18
2018-06-04T17:07:47.659Z,20.21
2018-06-04T17:10:16.734Z,20.08
2018-06-04T17:12:45.776Z,20.03
2018-06-04T17:15:14.800Z,19.94
2018-06-04T17:17:43.796Z,19.94
2018-06-04T17:20:12.805Z,19.85
2018-06-04T17:22:41.820Z,19.79
2018-06-04T17:25:10.867Z,19.74
2018-06-04T17:27:39.876Z,19.53
2018-06-04T17:30:09.003Z,19.67
2018-06-04T17:32:38.118Z,19.91
2018-06-04T17:35:07.156Z,19.95
2018-06-04T17:37:36.260Z,19.97
2018-06-04T17:40:05.311Z,19.93
2018-06-04T17:42:34.396Z,19.87
2018-06-04T17:45:03.471Z,19.93
2018-06-04T17:47:32.473Z,19.85
2018-06-04T17:50:01.524Z,19.78
2018-06-04T17:52:30.576Z,19.78
2018-06-04T17:54:59.667Z,19.90
2018-06-04T17:57:28.724Z,19.94
2018-06-04T17:59:57.728Z,19.83
2018-06-04T18:02:26.748Z,19.84
2018-06-04T18:04:55.795Z,19.56
2018-06-04T18:07:24.821Z,19.39
2018-06-04T18:09:53.844Z,19.49
2018-06-04T18:12:23.162Z,19.61
2018-06-04T18:14:52.245Z,19.53
2018-06-04T18:17:21.356Z,19.60
2018-06-04T18:19:50.468Z,19.69
2018-06-04T18:22:19.564Z,19.71
2018-06-04T18:24:48.556Z,19.70
2018-06-04T18:27:17.599Z,19.73
2018-06-04T18:29:46.614Z,19.83
2018-06-04T18:32:15.645Z,19.92
2018-06-04T18:34:44.689Z,19.99
2018-06-04T18:37:13.799Z,19.86
2018-06-04T18:39:42.936Z,19.76
2018-06-04T18:42:11.953Z,19.77
2018-06-04T18:44:40.975Z,19.81
2018-06-04T18:47:09.973Z,19.74
2018-06-04T18:49:39.016Z,19.70
2018-06-04T18:52:08.259Z,19.69
2018-06-04T18:54:37.296Z,19.54
2018-06-04T18:57:06.676Z,19.42
2018-06-04T18:59:35.743Z,19.29
2018-06-04T19:02:05.763Z,19.17
2018-06-04T19:04:34.815Z,19.24
2018-06-04T19:07:03.885Z,19.27
2018-06-04T19:09:32.925Z,19.31
2018-06-04T19:12:01.958Z,19.28
2018-06-04T19:14:31.081Z,19.02
2018-06-04T19:17:00.175Z,19.07
2018-06-04T19:19:29.196Z,19.01
2018-06-04T19:21:58.267Z,18.96
2018-06-04T19:24:27.287Z,18.96
2018-06-04T19:26:56.499Z,18.63
2018-06-04T19:29:25.462Z,18.68
2018-06-04T19:31:57.182Z,18.81
2018-06-04T19:34:32.167Z,18.92
2018-06-04T19:37:06.156Z,18.99
2018-06-04T19:39:35.159Z,19.04
2018-06-04T19:42:04.205Z,18.99
2018-06-04T19:44:33.263Z,18.96
2018-06-04T19:47:02.446Z,18.79
2018-06-04T19:49:31.420Z,18.84
2018-06-04T19:52:00.677Z,18.91
2018-06-04T19:54:29.691Z,18.83
2018-06-04T19:56:58.916Z,18.72
2018-06-04T19:59:28.023Z,18.58
2018-06-04T20:02:02.578Z,18.60
2018-06-04T20:04:31.611Z,18.60
2018-06-04T20:07:01.136Z,18.59
2018-06-04T20:09:30.145Z,18.34
2018-06-04T20:12:00.122Z,18.31
2018-06-04T20:14:34.815Z,18.09
2018-06-04T20:17:03.918Z,18.07
2018-06-04T20:19:32.969Z,18.01
2018-06-04T20:22:02.017Z,17.96
2018-06-04T20:24:31.131Z,18.06
2018-06-04T20:27:00.181Z,18.05
2018-06-04T20:29:29.302Z,18.02
2018-06-04T20:31:58.342Z,18.07
2018-06-04T20:34:27.387Z,18.08
2018-06-04T20:36:56.420Z,17.87
2018-06-04T20:39:25.479Z,17.91
2018-06-04T20:41:54.811Z,18.03
2018-06-04T20:44:23.806Z,17.98
2018-06-04T20:46:52.901Z,18.01
2018-06-04T20:49:21.929Z,18.12
2018-06-04T20:51:51.141Z,18.17
2018-06-04T20:54:20.190Z,18.13
2018-06-04T20:56:49.253Z,18.18
2018-06-04T20:59:18.317Z,18.13
2018-06-04T21:01:47.347Z,18.16
2018-06-04T21:04:16.381Z,18.17
2018-06-04T21:06:45.947Z,18.23
2018-06-04T21:09:14.957Z,18.18
2018-06-04T21:11:43.985Z,18.21
2018-06-04T21:14:12.984Z,18.36
2018-06-04T21:16:42.144Z,18.38
2018-06-04T21:19:11.211Z,18.32
2018-06-04T21:21:40.211Z,18.20
2018-06-04T21:24:09.289Z,18.01
2018-06-04T21:26:38.301Z,18.00
2018-06-04T21:29:07.293Z,18.00
2018-06-04T21:31:36.444Z,18.07
2018-06-04T21:34:05.751Z,18.06
2018-06-04T21:36:34.759Z,18.01
2018-06-04T21:39:05.101Z,18.09
2018-06-04T21:41:34.136Z,18.06
2018-06-04T21:44:03.149Z,18.09
2018-06-04T21:46:32.300Z,17.87
2018-06-04T21:49:01.404Z,17.80
2018-06-04T21:51:30.415Z,17.65
2018-06-04T21:53:59.450Z,17.66
2018-06-04T21:56:28.543Z,17.76
2018-06-04T21:58:57.625Z,17.73
2018-06-04T22:01:27.097Z,17.66
2018-06-04T22:03:56.148Z,17.66
2018-06-04T22:19:25.297Z,17.98
2018-06-04T22:21:54.314Z,17.98
2018-06-04T22:24:23.304Z,18.00
2018-06-04T22:26:52.400Z,17.80
2018-06-04T22:29:21.449Z,17.67
2018-06-04T22:31:50.507Z,17.67
2018-06-04T22:34:20.391Z,17.74
2018-06-04T22:36:54.884Z,17.80
2018-06-04T22:39:23.915Z,17.87
2018-06-04T22:41:53.031Z,17.98
2018-06-04T22:44:22.017Z,17.96
2018-06-04T22:46:51.039Z,17.89
2018-06-04T22:49:20.103Z,17.85
2018-06-04T22:51:49.100Z,17.73
2018-06-04T22:54:18.143Z,17.77
2018-06-04T22:56:47.235Z,17.75
2018-06-04T22:59:16.599Z,17.76
2018-06-04T23:01:45.615Z,17.70
2018-06-04T23:04:14.964Z,17.66
2018-06-04T23:06:44.550Z,17.68
2018-06-04T23:09:13.672Z,17.66
2018-06-04T23:11:42.798Z,17.53
2018-06-04T23:14:11.863Z,17.54
2018-06-04T23:16:40.888Z,17.61
2018-06-04T23:19:09.892Z,17.67
2018-06-04T23:21:38.940Z,17.48
2018-06-04T23:24:07.965Z,17.51
2018-06-04T23:26:36.960Z,17.64
2018-06-04T23:29:06.675Z,17.57
2018-06-04T23:31:35.807Z,17.60
2018-06-04T23:34:04.880Z,17.62
2018-06-04T23:36:33.900Z,17.53
2018-06-04T23:39:02.944Z,17.52
2018-06-04T23:41:32.070Z,17.51
2018-06-04T23:44:01.913Z,17.50
2018-06-04T23:46:30.980Z,17.49
2018-06-04T23:49:00.316Z,17.59
2018-06-04T23:51:29.392Z,17.76
2018-06-04T23:54:05.017Z,17.75
2018-06-04T23:56:34.069Z,17.70
2018-06-04T23:59:03.284Z,17.67
